Time;durP1;ratioP1;P1;durP2;ratioP2;P2;SDS_P1;SDS_P2;PMS_P1;PMS_P2;Temp;Humidity;BMP_temperature;BMP_pressure;BME280_temperature;BME280_humidity;BME280_pressure;Samples;Min_cycle;Max_cycle;Signal;HPM_P1;HPM_P2
2020/12/29 00:02:15;;;;;;;19.75;16.23;;;;;;;;;;5044521;28;20405;-84
2020/12/29 00:04:41;;;;;;;20.77;16.83;;;;;;;;;;5037821;28;21127;-84
2020/12/29 00:07:07;;;;;;;19.55;16.58;;;;;;;;;;5042269;28;20399;-84
2020/12/29 00:09:33;;;;;;;18.75;15.57;;;;;;;;;;5044535;28;20407;-85
2020/12/29 00:12:01;;;;;;;18.60;16.60;;;;;;;;;;5044216;28;20918;-84
2020/12/29 00:14:27;;;;;;;20.85;17.20;;;;;;;;;;5049991;28;20407;-84
2020/12/29 00:16:53;;;;;;;22.98;18.23;;;;;;;;;;5046335;28;20407;-84
2020/12/29 00:19:26;;;;;;;20.70;18.08;;;;;;;;;;5039688;28;20865;-84
2020/12/29 00:21:56;;;;;;;20.35;18.08;;;;;;;;;;5042925;28;20407;-84
2020/12/29 00:24:24;;;;;;;24.40;19.10;;;;;;;;;;5048722;28;20422;-84
2020/12/29 00:26:53;;;;;;;23.70;19.90;;;;;;;;;;5046397;28;20395;-85
2020/12/29 00:29:19;;;;;;;24.25;20.15;;;;;;;;;;5049437;28;20439;-84
2020/12/29 00:31:45;;;;;;;26.52;21.13;;;;;;;;;;5065843;28;20426;-84
2020/12/29 00:34:11;;;;;;;22.33;18.63;;;;;;;;;;5040414;28;20454;-83
2020/12/29 00:36:38;;;;;;;22.75;18.30;;;;;;;;;;5046218;28;20431;-84
2020/12/29 00:39:04;;;;;;;20.48;17.20;;;;;;;;;;5044912;28;20399;-84
2020/12/29 00:41:31;;;;;;;19.20;16.45;;;;;;;;;;5039637;28;20820;-84
2020/12/29 00:44:01;;;;;;;20.15;17.27;;;;;;;;;;5042282;28;20396;-84
2020/12/29 00:46:27;;;;;;;21.40;17.00;;;;;;;;;;5046574;28;20399;-84
2020/12/29 00:48:54;;;;;;;21.60;17.57;;;;;;;;;;5046432;28;20505;-85
2020/12/29 00:51:22;;;;;;;20.38;17.15;;;;;;;;;;5037272;28;20745;-84
2020/12/29 00:53:48;;;;;;;20.13;17.23;;;;;;;;;;5047139;28;20396;-84
2020/12/29 00:56:14;;;;;;;21.25;17.52;;;;;;;;;;5045151;28;20795;-85
2020/12/29 00:58:43;;;;;;;20.00;16.77;;;;;;;;;;5047066;28;20877;-83
2020/12/29 01:01:09;;;;;;;21.15;17.77;;;;;;;;;;5047312;28;20412;-84
2020/12/29 01:03:35;;;;;;;28.35;21.17;;;;;;;;;;5038840;28;20400;-83
2020/12/29 01:06:01;;;;;;;25.92;21.10;;;;;;;;;;5043691;28;20450;-84
2020/12/29 01:08:27;;;;;;;27.27;20.58;;;;;;;;;;5045805;28;20399;-83
2020/12/29 01:11:01;;;;;;;24.70;20.48;;;;;;;;;;5044317;28;20388;-86
2020/12/29 01:13:33;;;;;;;25.80;21.02;;;;;;;;;;5045343;28;20411;-85
2020/12/29 01:16:02;;;;;;;22.38;19.30;;;;;;;;;;5046383;28;20395;-87
2020/12/29 01:18:31;;;;;;;23.92;19.50;;;;;;;;;;5045124;28;20892;-88
2020/12/29 01:21:03;;;;;;;23.58;19.50;;;;;;;;;;5052057;28;20411;-87
2020/12/29 01:23:42;;;;;;;27.05;20.70;;;;;;;;;;5062439;28;20395;-86
2020/12/29 01:26:30;;;;;;;;;;;;;;;;;;;;;
2020/12/29 01:28:56;;;;;;;28.45;21.05;;;;;;;;;;5065876;28;21048;-84
2020/12/29 01:31:30;;;;;;;25.17;20.57;;;;;;;;;;5046548;28;20415;-84
2020/12/29 01:33:57;;;;;;;24.02;20.02;;;;;;;;;;5043150;28;20756;-84
2020/12/29 01:36:23;;;;;;;24.10;18.77;;;;;;;;;;5047837;28;20482;-84
2020/12/29 01:38:49;;;;;;;23.50;19.23;;;;;;;;;;5045684;28;20927;-84
2020/12/29 01:41:15;;;;;;;25.48;20.58;;;;;;;;;;5042073;28;20420;-85
2020/12/29 01:43:49;;;;;;;25.90;20.70;;;;;;;;;;5044521;28;20765;-84
2020/12/29 01:46:24;;;;;;;26.30;20.33;;;;;;;;;;5049360;28;20410;-85
2020/12/29 01:48:51;;;;;;;27.95;21.52;;;;;;;;;;5042651;28;20415;-84
2020/12/29 01:51:17;;;;;;;24.85;20.45;;;;;;;;;;5041175;28;20916;-84
2020/12/29 01:53:43;;;;;;;30.23;22.73;;;;;;;;;;5046002;28;20436;-84
2020/12/29 01:56:14;;;;;;;25.45;21.13;;;;;;;;;;5042691;28;20538;-83
2020/12/29 01:58:43;;;;;;;25.00;20.02;;;;;;;;;;5043587;28;20415;-84
2020/12/29 02:01:09;;;;;;;24.23;19.37;;;;;;;;;;5043403;28;20914;-84
2020/12/29 02:03:35;;;;;;;25.88;21.27;;;;;;;;;;5039293;28;20403;-84
2020/12/29 02:06:04;;;;;;;27.25;21.33;;;;;;;;;;5044922;28;20394;-84
2020/12/29 02:08:38;;;;;;;24.98;20.52;;;;;;;;;;5047965;28;20408;-84
2020/12/29 02:11:04;;;;;;;24.67;19.67;;;;;;;;;;5041170;28;20410;-83
2020/12/29 02:13:38;;;;;;;25.05;19.65;;;;;;;;;;5047556;28;20494;-83
2020/12/29 02:16:04;;;;;;;27.27;20.52;;;;;;;;;;5042544;28;20400;-83
2020/12/29 02:18:30;;;;;;;29.83;21.05;;;;;;;;;;5041940;28;20504;-84
2020/12/29 02:20:56;;;;;;;26.47;21.27;;;;;;;;;;5060462;28;20407;-84
2020/12/29 02:23:22;;;;;;;26.13;20.80;;;;;;;;;;5046550;28;21078;-83
2020/12/29 02:25:48;;;;;;;30.58;22.48;;;;;;;;;;5041755;28;20412;-83
2020/12/29 02:28:14;;;;;;;26.15;20.70;;;;;;;;;;5044493;28;20391;-83
2020/12/29 02:30:46;;;;;;;30.30;22.13;;;;;;;;;;5040987;28;20876;-83
2020/12/29 02:33:12;;;;;;;29.05;21.88;;;;;;;;;;5039602;28;20793;-84
2020/12/29 02:35:38;;;;;;;31.02;23.10;;;;;;;;;;5044142;28;20399;-84
2020/12/29 02:38:04;;;;;;;31.52;23.88;;;;;;;;;;5042394;28;20396;-84
2020/12/29 02:40:33;;;;;;;28.88;22.45;;;;;;;;;;5042173;28;20427;-84
2020/12/29 02:43:12;;;;;;;;;;;;;;;;;;;;;
2020/12/29 02:45:38;;;;;;;30.27;24.02;;;;;;;;;;5064717;28;20414;-84
2020/12/29 02:48:09;;;;;;;32.70;24.83;;;;;;;;;;5044322;28;20403;-84
2020/12/29 02:50:35;;;;;;;29.58;23.40;;;;;;;;;;5042216;28;20408;-83
2020/12/29 02:53:05;;;;;;;32.00;24.42;;;;;;;;;;5042142;28;20407;-83
2020/12/29 02:55:38;;;;;;;29.77;22.08;;;;;;;;;;5040682;28;21764;-84
2020/12/29 02:58:12;;;;;;;28.38;22.73;;;;;;;;;;5038657;28;20463;-84
2020/12/29 03:00:38;;;;;;;27.90;21.40;;;;;;;;;;5041746;28;20465;-84
2020/12/29 03:03:07;;;;;;;28.10;22.83;;;;;;;;;;5035371;28;20776;-83
2020/12/29 03:05:33;;;;;;;28.05;22.38;;;;;;;;;;5042890;28;20895;-85
2020/12/29 03:07:59;;;;;;;26.40;20.67;;;;;;;;;;5041883;28;21125;-84
2020/12/29 03:10:27;;;;;;;29.42;22.05;;;;;;;;;;5039808;28;20915;-83
2020/12/29 03:12:53;;;;;;;30.90;23.88;;;;;;;;;;5037161;28;20499;-84
2020/12/29 03:15:19;;;;;;;29.95;22.80;;;;;;;;;;5033273;28;20518;-84
2020/12/29 03:17:45;;;;;;;28.90;23.70;;;;;;;;;;5037243;28;20885;-84
2020/12/29 03:20:11;;;;;;;28.60;22.40;;;;;;;;;;5026940;28;20703;-84
2020/12/29 03:22:37;;;;;;;26.80;21.23;;;;;;;;;;5039460;28;20416;-84
2020/12/29 03:25:03;;;;;;;27.57;22.27;;;;;;;;;;5043618;28;20401;-84
2020/12/29 03:27:34;;;;;;;27.52;21.75;;;;;;;;;;5036079;28;20399;-84
2020/12/29 03:30:03;;;;;;;27.35;21.60;;;;;;;;;;5043297;28;20416;-84
2020/12/29 03:32:37;;;;;;;29.92;21.77;;;;;;;;;;5042126;28;21363;-84
2020/12/29 03:35:03;;;;;;;26.08;21.02;;;;;;;;;;5038135;28;20738;-84
2020/12/29 03:37:29;;;;;;;28.60;21.75;;;;;;;;;;5038937;28;20406;-85
2020/12/29 03:39:55;;;;;;;30.48;21.10;;;;;;;;;;5037225;28;21110;-83
2020/12/29 03:42:21;;;;;;;24.70;20.73;;;;;;;;;;5038081;28;20420;-84
2020/12/29 03:44:47;;;;;;;29.02;21.42;;;;;;;;;;5042670;28;20401;-84
2020/12/29 03:47:16;;;;;;;26.88;21.48;;;;;;;;;;5040013;28;20925;-83
2020/12/29 03:49:45;;;;;;;27.48;21.88;;;;;;;;;;5034841;28;20731;-84
2020/12/29 03:52:11;;;;;;;26.45;20.33;;;;;;;;;;5042877;28;20541;-84
2020/12/29 03:54:40;;;;;;;28.25;21.92;;;;;;;;;;5037309;28;20413;-84
2020/12/29 03:57:06;;;;;;;35.53;24.65;;;;;;;;;;5038338;28;20469;-84
2020/12/29 03:59:32;;;;;;;30.98;23.83;;;;;;;;;;5042681;28;20421;-84
2020/12/29 04:01:58;;;;;;;32.88;23.98;;;;;;;;;;5021535;28;20553;-84
2020/12/29 04:04:24;;;;;;;34.78;25.40;;;;;;;;;;5023546;28;20408;-84
2020/12/29 04:06:53;;;;;;;31.80;24.38;;;;;;;;;;5016195;28;20424;-83
2020/12/29 04:09:28;;;;;;;53.63;30.23;;;;;;;;;;5041367;28;20518;-84
2020/12/29 04:11:56;;;;;;;36.30;26.33;;;;;;;;;;5024874;28;20401;-83
2020/12/29 04:14:22;;;;;;;32.53;25.45;;;;;;;;;;5024658;28;20407;-84
2020/12/29 04:16:49;;;;;;;48.85;28.55;;;;;;;;;;5032271;28;20496;-84
2020/12/29 04:19:17;;;;;;;49.97;29.85;;;;;;;;;;5041160;28;20406;-84
2020/12/29 04:21:48;;;;;;;41.35;29.00;;;;;;;;;;5048938;28;20401;-85
2020/12/29 04:24:14;;;;;;;38.65;27.65;;;;;;;;;;5023463;28;20397;-83
2020/12/29 04:26:40;;;;;;;34.40;26.17;;;;;;;;;;5022617;28;20415;-84
2020/12/29 04:29:06;;;;;;;33.75;25.02;;;;;;;;;;5030391;28;20438;-84
2020/12/29 04:31:32;;;;;;;39.03;27.45;;;;;;;;;;5046242;28;20444;-84
2020/12/29 04:33:58;;;;;;;39.15;28.58;;;;;;;;;;5027004;28;20401;-84
2020/12/29 04:36:24;;;;;;;36.03;27.10;;;;;;;;;;5046243;28;20399;-84
2020/12/29 04:38:50;;;;;;;41.42;27.88;;;;;;;;;;5021000;28;20409;-83
2020/12/29 04:41:19;;;;;;;36.75;26.48;;;;;;;;;;5027113;28;20448;-84
2020/12/29 04:43:46;;;;;;;37.65;27.38;;;;;;;;;;5019605;28;21101;-83
2020/12/29 04:46:12;;;;;;;39.97;28.92;;;;;;;;;;5030264;28;20436;-84
2020/12/29 04:48:38;;;;;;;35.58;27.35;;;;;;;;;;5031068;28;20409;-84
2020/12/29 04:51:08;;;;;;;37.20;27.52;;;;;;;;;;5023378;28;20427;-84
2020/12/29 04:53:34;;;;;;;37.85;28.27;;;;;;;;;;5021612;28;20411;-84
2020/12/29 04:56:06;;;;;;;34.38;25.77;;;;;;;;;;5024360;28;20391;-83
2020/12/29 04:58:38;;;;;;;33.87;25.90;;;;;;;;;;5023056;28;20502;-84
2020/12/29 05:01:09;;;;;;;41.60;28.05;;;;;;;;;;5019476;28;20450;-84
2020/12/29 05:03:42;;;;;;;41.67;28.70;;;;;;;;;;5040669;28;20529;-84
2020/12/29 05:06:14;;;;;;;41.27;29.67;;;;;;;;;;5020570;28;20461;-84
2020/12/29 05:08:52;;;;;;;41.33;29.75;;;;;;;;;;5021424;28;20412;-83
2020/12/29 05:11:18;;;;;;;41.83;29.85;;;;;;;;;;5018389;28;20403;-84
2020/12/29 05:13:45;;;;;;;46.72;31.73;;;;;;;;;;5019842;28;21016;-84
2020/12/29 05:16:13;;;;;;;37.38;28.75;;;;;;;;;;5023542;28;20437;-84
2020/12/29 05:18:39;;;;;;;39.90;28.50;;;;;;;;;;5019408;28;20405;-83
2020/12/29 05:21:05;;;;;;;44.90;31.13;;;;;;;;;;5024176;28;20426;-84
2020/12/29 05:23:33;;;;;;;40.03;28.83;;;;;;;;;;5024394;28;20900;-83
2020/12/29 05:26:02;;;;;;;37.65;28.63;;;;;;;;;;5021616;28;20413;-84
2020/12/29 05:28:31;;;;;;;37.47;27.17;;;;;;;;;;5021724;28;20420;-84
2020/12/29 05:31:01;;;;;;;40.92;29.63;;;;;;;;;;5025962;28;20512;-85
2020/12/29 05:33:27;;;;;;;44.13;30.80;;;;;;;;;;5022687;28;20916;-84
2020/12/29 05:35:54;;;;;;;43.10;31.52;;;;;;;;;;5017872;28;20398;-85
2020/12/29 05:38:20;;;;;;;39.15;29.55;;;;;;;;;;5027109;28;20428;-84
2020/12/29 05:40:47;;;;;;;41.00;29.63;;;;;;;;;;5033016;28;20480;-84
2020/12/29 05:43:13;;;;;;;37.60;29.97;;;;;;;;;;5020764;28;20405;-84
2020/12/29 05:45:39;;;;;;;41.97;30.67;;;;;;;;;;5022009;28;20431;-83
2020/12/29 05:48:05;;;;;;;44.20;31.38;;;;;;;;;;5023464;28;20480;-83
2020/12/29 05:50:32;;;;;;;44.83;31.27;;;;;;;;;;5025095;28;20413;-84
2020/12/29 05:53:07;;;;;;;51.17;34.55;;;;;;;;;;5019764;28;20441;-83
2020/12/29 05:55:34;;;;;;;48.78;34.20;;;;;;;;;;5026595;28;20408;-83
2020/12/29 05:58:01;;;;;;;48.10;33.28;;;;;;;;;;5025177;28;20475;-84
2020/12/29 06:00:29;;;;;;;47.23;33.27;;;;;;;;;;5024748;28;20487;-83
2020/12/29 06:02:57;;;;;;;45.55;30.98;;;;;;;;;;5023396;28;20416;-83
2020/12/29 06:05:23;;;;;;;50.13;33.88;;;;;;;;;;5022994;28;21043;-84
2020/12/29 06:07:53;;;;;;;48.63;32.97;;;;;;;;;;5027835;28;20804;-83
2020/12/29 06:10:19;;;;;;;42.53;30.77;;;;;;;;;;5024618;28;20420;-82
2020/12/29 06:12:52;;;;;;;42.95;32.22;;;;;;;;;;5023483;28;20906;-82
2020/12/29 06:15:31;;;;;;;42.17;31.02;;;;;;;;;;5023708;28;20911;-83
2020/12/29 06:18:01;;;;;;;45.27;31.50;;;;;;;;;;5014093;28;20425;-84
2020/12/29 06:20:36;;;;;;;45.30;32.60;;;;;;;;;;5018080;28;20467;-83
2020/12/29 06:23:03;;;;;;;52.50;34.80;;;;;;;;;;5027826;28;20406;-83
2020/12/29 06:25:39;;;;;;;45.15;31.98;;;;;;;;;;5021275;28;20411;-84
2020/12/29 06:28:08;;;;;;;47.75;34.10;;;;;;;;;;5020513;28;20389;-84
2020/12/29 06:30:37;;;;;;;44.80;31.67;;;;;;;;;;5009970;28;20422;-82
2020/12/29 06:33:07;;;;;;;50.75;33.63;;;;;;;;;;5018952;28;20482;-84
2020/12/29 06:35:33;;;;;;;45.53;32.35;;;;;;;;;;5018526;28;20843;-84
2020/12/29 06:37:59;;;;;;;46.97;32.55;;;;;;;;;;5015512;28;20411;-83
2020/12/29 06:40:29;;;;;;;48.43;32.20;;;;;;;;;;5009035;28;21139;-83
2020/12/29 06:42:55;;;;;;;47.55;32.25;;;;;;;;;;5027193;28;20459;-84
2020/12/29 06:45:21;;;;;;;45.58;32.33;;;;;;;;;;5024656;28;21104;-83
2020/12/29 06:47:49;;;;;;;50.45;33.35;;;;;;;;;;5021490;28;20398;-84
2020/12/29 06:50:28;;;;;;;49.70;33.33;;;;;;;;;;5023905;28;21043;-83
2020/12/29 06:52:58;;;;;;;49.65;33.22;;;;;;;;;;5007085;28;20415;-83
2020/12/29 06:55:28;;;;;;;48.53;32.15;;;;;;;;;;5003405;28;20961;-83
2020/12/29 06:57:58;;;;;;;45.78;31.23;;;;;;;;;;4999617;28;20847;-84
2020/12/29 07:00:25;;;;;;;47.22;32.45;;;;;;;;;;5004768;28;20418;-83
2020/12/29 07:02:54;;;;;;;50.03;32.85;;;;;;;;;;5005794;28;20458;-83
2020/12/29 07:05:27;;;;;;;46.03;31.65;;;;;;;;;;5022279;28;20433;-83
2020/12/29 07:08:02;;;;;;;47.67;33.15;;;;;;;;;;5004677;28;20923;-83
2020/12/29 07:10:38;;;;;;;46.95;32.88;;;;;;;;;;5001432;28;20729;-83
2020/12/29 07:13:06;;;;;;;49.80;32.30;;;;;;;;;;4996558;28;20461;-83
2020/12/29 07:15:32;;;;;;;47.50;32.88;;;;;;;;;;4999978;28;20411;-83
2020/12/29 07:18:00;;;;;;;48.17;33.13;;;;;;;;;;5000663;28;20407;-83
2020/12/29 07:20:27;;;;;;;50.55;33.83;;;;;;;;;;5004928;28;20410;-83
2020/12/29 07:22:54;;;;;;;47.00;32.88;;;;;;;;;;5019000;28;20750;-83
2020/12/29 07:25:26;;;;;;;48.30;32.17;;;;;;;;;;5005648;28;20415;-84
2020/12/29 07:27:59;;;;;;;49.40;33.83;;;;;;;;;;5003241;28;20407;-82
2020/12/29 07:30:25;;;;;;;49.30;32.63;;;;;;;;;;5002175;28;20399;-82
2020/12/29 07:32:51;;;;;;;50.50;31.95;;;;;;;;;;5000374;28;21104;-83
2020/12/29 07:35:21;;;;;;;50.95;32.50;;;;;;;;;;5002697;28;20411;-83
2020/12/29 07:37:50;;;;;;;47.20;32.28;;;;;;;;;;5001968;28;20731;-83
2020/12/29 07:40:17;;;;;;;49.07;33.63;;;;;;;;;;5003611;28;20422;-83
2020/12/29 07:42:43;;;;;;;49.25;31.63;;;;;;;;;;5003214;28;21075;-84
2020/12/29 07:45:12;;;;;;;47.08;32.53;;;;;;;;;;4998533;28;20506;-82
2020/12/29 07:47:38;;;;;;;49.47;33.05;;;;;;;;;;5000705;28;20404;-82
2020/12/29 07:50:04;;;;;;;50.83;31.98;;;;;;;;;;5001850;28;20406;-83
2020/12/29 07:52:30;;;;;;;49.30;31.63;;;;;;;;;;5000376;28;20427;-82
2020/12/29 07:55:06;;;;;;;53.08;33.00;;;;;;;;;;5003712;28;20403;-83
2020/12/29 07:57:33;;;;;;;51.28;32.05;;;;;;;;;;4996446;28;20496;-83
2020/12/29 08:00:15;;;;;;;52.25;33.53;;;;;;;;;;5001777;28;20422;-86
2020/12/29 08:02:49;;;;;;;52.92;32.67;;;;;;;;;;5007587;28;20406;-83
2020/12/29 08:05:16;;;;;;;54.90;32.45;;;;;;;;;;5006303;28;20935;-83
2020/12/29 08:07:42;;;;;;;53.72;33.15;;;;;;;;;;5003211;28;20743;-83
2020/12/29 08:10:08;;;;;;;50.80;32.42;;;;;;;;;;5000125;28;20401;-83
2020/12/29 08:12:34;;;;;;;55.75;33.97;;;;;;;;;;5010875;28;20939;-82
2020/12/29 08:15:00;;;;;;;54.37;33.63;;;;;;;;;;5004347;28;20938;-83
2020/12/29 08:17:26;;;;;;;66.13;40.45;;;;;;;;;;5000227;28;20494;-84
2020/12/29 08:20:01;;;;;;;61.03;36.63;;;;;;;;;;4993160;28;20535;-84
2020/12/29 08:22:28;;;;;;;57.65;34.97;;;;;;;;;;5022840;28;20457;-83
2020/12/29 08:24:54;;;;;;;59.97;34.55;;;;;;;;;;5023599;28;20860;-84
2020/12/29 08:27:20;;;;;;;58.87;35.77;;;;;;;;;;5008730;28;20441;-79
2020/12/29 08:29:46;;;;;;;63.22;37.83;;;;;;;;;;5009163;28;20442;-80
2020/12/29 08:32:13;;;;;;;61.47;35.95;;;;;;;;;;5006605;28;21160;-84
2020/12/29 08:34:39;;;;;;;60.95;35.30;;;;;;;;;;5005669;28;20422;-85
2020/12/29 08:37:07;;;;;;;57.55;34.90;;;;;;;;;;5003863;28;20402;-82
2020/12/29 08:39:53;;;;;;;62.75;35.50;;;;;;;;;;5005498;28;20468;-83
2020/12/29 08:42:20;;;;;;;68.30;36.95;;;;;;;;;;4999997;28;20492;-85
2020/12/29 08:44:54;;;;;;;68.18;37.28;;;;;;;;;;5005457;28;20399;-85
2020/12/29 08:47:20;;;;;;;61.40;36.65;;;;;;;;;;5005993;28;20407;-84
2020/12/29 08:49:46;;;;;;;64.10;37.70;;;;;;;;;;5010301;28;20400;-82
2020/12/29 08:52:14;;;;;;;65.07;37.17;;;;;;;;;;5005666;28;20433;-85
2020/12/29 08:54:43;;;;;;;60.70;37.33;;;;;;;;;;5025434;28;20448;-85
2020/12/29 08:57:10;;;;;;;59.55;36.53;;;;;;;;;;5029014;28;20504;-85
2020/12/29 08:59:42;;;;;;;66.50;36.83;;;;;;;;;;5026896;28;20416;-85
2020/12/29 09:02:08;;;;;;;68.05;37.88;;;;;;;;;;5033804;28;20447;-85
2020/12/29 09:04:43;;;;;;;74.57;41.60;;;;;;;;;;5029017;28;21053;-87
2020/12/29 09:07:13;;;;;;;64.72;37.50;;;;;;;;;;5040842;28;20394;-85
2020/12/29 09:09:39;;;;;;;62.25;35.55;;;;;;;;;;5037085;28;20541;-83
2020/12/29 09:12:13;;;;;;;54.40;33.80;;;;;;;;;;5042376;28;20879;-83
2020/12/29 09:14:50;;;;;;;56.00;33.50;;;;;;;;;;5041956;28;20403;-85
2020/12/29 09:17:16;;;;;;;54.28;32.80;;;;;;;;;;5059901;28;20500;-84
2020/12/29 09:20:01;;;;;;;49.97;32.55;;;;;;;;;;5049492;28;20901;-84
2020/12/29 09:22:50;;;;;;;52.30;33.28;;;;;;;;;;5051970;28;21080;-86
2020/12/29 09:25:28;;;;;;;53.65;33.30;;;;;;;;;;5047015;28;20400;-89
2020/12/29 09:28:13;;;;;;;52.85;32.08;;;;;;;;;;5042430;28;20441;-83
2020/12/29 09:30:45;;;;;;;53.33;32.92;;;;;;;;;;5047660;28;20400;-84
2020/12/29 09:33:22;;;;;;;46.45;31.05;;;;;;;;;;5046185;28;20416;-85
2020/12/29 09:35:52;;;;;;;47.47;29.48;;;;;;;;;;5049667;28;20405;-87
2020/12/29 09:38:20;;;;;;;45.35;28.90;;;;;;;;;;5048373;28;20403;-84
2020/12/29 09:40:51;;;;;;;46.05;29.23;;;;;;;;;;5038803;28;20418;-84
2020/12/29 09:43:19;;;;;;;48.00;30.77;;;;;;;;;;5046496;28;20703;-84
2020/12/29 09:45:47;;;;;;;43.23;28.57;;;;;;;;;;5049678;28;20423;-86
2020/12/29 09:48:16;;;;;;;40.78;27.55;;;;;;;;;;5045706;28;20453;-87
2020/12/29 09:50:44;;;;;;;47.95;29.58;;;;;;;;;;5039697;28;20401;-85
2020/12/29 09:56:19;;;;;;;49.65;27.85;;;;;;;;;;5072516;28;20367;-81
2020/12/29 09:58:48;;;;;;;43.53;27.65;;;;;;;;;;5064403;28;20462;-84
2020/12/29 10:01:16;;;;;;;43.10;28.08;;;;;;;;;;5041830;28;20478;-83
2020/12/29 10:03:45;;;;;;;44.50;28.48;;;;;;;;;;5047781;28;20929;-85
2020/12/29 10:06:13;;;;;;;44.13;27.98;;;;;;;;;;5042983;28;20401;-85
2020/12/29 10:08:41;;;;;;;46.58;29.75;;;;;;;;;;5041734;28;20400;-83
2020/12/29 10:11:12;;;;;;;48.37;29.63;;;;;;;;;;5048057;28;20427;-84
2020/12/29 10:13:39;;;;;;;51.53;28.52;;;;;;;;;;5046512;28;21335;-84
2020/12/29 10:16:05;;;;;;;41.72;27.45;;;;;;;;;;5048859;28;20440;-83
2020/12/29 10:18:38;;;;;;;43.17;28.67;;;;;;;;;;5050393;28;20837;-83
2020/12/29 10:21:05;;;;;;;41.58;28.02;;;;;;;;;;5042798;28;20412;-84
2020/12/29 10:23:33;;;;;;;39.03;27.15;;;;;;;;;;5044545;28;20405;-84
2020/12/29 10:26:07;;;;;;;36.65;25.98;;;;;;;;;;5045629;28;20408;-84
2020/12/29 10:28:39;;;;;;;40.22;27.00;;;;;;;;;;5045643;28;20431;-84
2020/12/29 10:31:11;;;;;;;39.78;26.58;;;;;;;;;;5045679;28;20403;-84
2020/12/29 10:33:37;;;;;;;40.63;26.63;;;;;;;;;;5042048;28;20406;-84
2020/12/29 10:36:13;;;;;;;40.53;27.33;;;;;;;;;;5041252;28;20488;-87
2020/12/29 10:38:41;;;;;;;41.95;27.27;;;;;;;;;;5046054;28;20396;-84
2020/12/29 10:41:17;;;;;;;44.72;28.27;;;;;;;;;;5040217;28;20411;-85
2020/12/29 10:43:46;;;;;;;41.65;28.00;;;;;;;;;;5060702;28;20399;-84
2020/12/29 10:46:21;;;;;;;42.47;28.05;;;;;;;;;;5041981;28;20403;-83
2020/12/29 10:48:59;;;;;;;;;;;;;;;;;;;;;
2020/12/29 10:51:26;;;;;;;43.45;26.88;;;;;;;;;;5060246;28;20429;-83
2020/12/29 10:53:53;;;;;;;35.57;25.53;;;;;;;;;;5061212;28;20469;-85
2020/12/29 10:59:27;;;;;;;35.15;25.08;;;;;;;;;;5024467;28;20727;-81
2020/12/29 11:01:55;;;;;;;35.80;24.90;;;;;;;;;;5036723;28;20403;-80
2020/12/29 11:04:22;;;;;;;38.85;26.27;;;;;;;;;;5039997;28;21023;-82
2020/12/29 11:06:49;;;;;;;32.92;24.05;;;;;;;;;;5044175;28;20387;-81
2020/12/29 11:09:34;;;;;;;35.38;25.15;;;;;;;;;;5042201;28;20382;-89
2020/12/29 11:12:23;;;;;;;36.00;25.25;;;;;;;;;;5045825;28;20388;-89
2020/12/29 11:15:01;;;;;;;34.95;24.02;;;;;;;;;;5043637;28;20408;-85
2020/12/29 11:17:33;;;;;;;30.85;22.05;;;;;;;;;;5049651;28;20872;-85
2020/12/29 11:20:13;;;;;;;28.27;20.58;;;;;;;;;;5051989;28;20885;-87
2020/12/29 11:22:41;;;;;;;29.70;20.75;;;;;;;;;;5044939;28;20434;-85
2020/12/29 11:25:15;;;;;;;29.50;21.27;;;;;;;;;;5049965;28;20412;-84
2020/12/29 11:27:43;;;;;;;31.35;21.42;;;;;;;;;;5047900;28;20391;-85
2020/12/29 11:30:15;;;;;;;31.33;21.63;;;;;;;;;;5047635;28;20404;-85
2020/12/29 11:32:46;;;;;;;29.23;21.33;;;;;;;;;;5037378;28;20404;-86
2020/12/29 11:35:22;;;;;;;32.75;23.08;;;;;;;;;;5047458;28;20806;-83
2020/12/29 11:37:57;;;;;;;31.23;22.25;;;;;;;;;;5042149;28;20487;-85
2020/12/29 11:40:23;;;;;;;33.35;22.20;;;;;;;;;;5048825;28;20472;-87
2020/12/29 11:42:49;;;;;;;33.60;22.15;;;;;;;;;;5060178;28;20392;-84
2020/12/29 11:45:15;;;;;;;32.25;22.23;;;;;;;;;;5045427;28;20485;-85
2020/12/29 11:47:46;;;;;;;30.77;21.40;;;;;;;;;;5050166;28;20480;-84
2020/12/29 11:50:22;;;;;;;30.42;21.77;;;;;;;;;;5040332;28;20407;-84
2020/12/29 11:53:12;;;;;;;29.05;19.83;;;;;;;;;;5045261;28;20409;-85
2020/12/29 11:55:44;;;;;;;28.33;19.48;;;;;;;;;;5042932;28;20789;-84
2020/12/29 11:58:15;;;;;;;25.35;18.63;;;;;;;;;;5039340;28;20405;-85
2020/12/29 12:00:49;;;;;;;28.07;19.07;;;;;;;;;;5044174;28;20501;-86
2020/12/29 12:03:34;;;;;;;25.70;18.60;;;;;;;;;;5038452;28;20399;-85
2020/12/29 12:06:03;;;;;;;28.60;19.35;;;;;;;;;;5036593;28;20402;-85
2020/12/29 12:08:55;;;;;;;27.95;20.35;;;;;;;;;;5044225;28;20898;-83
2020/12/29 12:15:19;;;;;;;;;;;;;;;;;;;;;
2020/12/29 12:18:16;;;;;;;;;;;;;;;;;;;;;
2020/12/29 12:21:07;;;;;;;;;;;;;;;;;;;;;
2020/12/29 12:26:45;;;;;;;25.63;18.45;;;;;;;;;;5030313;28;20508;-86
2020/12/29 12:29:47;;;;;;;;;;;;;;;;;;;;;
2020/12/29 12:32:51;;;;;;;;;;;;;;;;;;;;;
2020/12/29 12:35:45;;;;;;;19.85;14.40;;;;;;;;;;5045108;28;20407;-88
2020/12/29 12:38:16;;;;;;;22.10;15.18;;;;;;;;;;5035286;28;20403;-84
2020/12/29 12:40:54;;;;;;;21.88;15.45;;;;;;;;;;5043593;28;20540;-85
2020/12/29 12:43:36;;;;;;;20.52;14.65;;;;;;;;;;5020384;28;20407;-84
2020/12/29 12:46:09;;;;;;;19.90;14.43;;;;;;;;;;5045620;28;20406;-85
2020/12/29 12:48:57;;;;;;;20.92;15.30;;;;;;;;;;5044948;28;20401;-85
2020/12/29 12:51:26;;;;;;;20.27;14.65;;;;;;;;;;5058743;28;20398;-87
2020/12/29 12:54:27;;;;;;;21.05;14.75;;;;;;;;;;5010788;28;20399;-90
2020/12/29 12:56:56;;;;;;;21.70;15.73;;;;;;;;;;5005546;28;20435;-84
2020/12/29 12:59:27;;;;;;;21.00;14.50;;;;;;;;;;5008499;28;20726;-85
2020/12/29 13:02:00;;;;;;;23.20;16.25;;;;;;;;;;5003949;28;20399;-88
2020/12/29 13:04:47;;;;;;;;;;;;;;;;;;;;;
2020/12/29 13:07:23;;;;;;;;;;;;;;;;;;;;;
2020/12/29 13:09:51;;;;;;;21.60;15.20;;;;;;;;;;5029868;28;20386;-84
2020/12/29 13:12:22;;;;;;;20.45;14.55;;;;;;;;;;5012285;28;20391;-84
2020/12/29 13:14:51;;;;;;;21.05;15.55;;;;;;;;;;5012762;28;20391;-85
2020/12/29 13:17:26;;;;;;;21.60;14.65;;;;;;;;;;5009422;28;20455;-84
2020/12/29 13:20:11;;;;;;;21.15;15.65;;;;;;;;;;4999196;28;20422;-84
2020/12/29 13:22:46;;;;;;;21.17;14.65;;;;;;;;;;5011482;28;20387;-84
2020/12/29 13:25:14;;;;;;;20.00;15.32;;;;;;;;;;5001956;28;20405;-88
2020/12/29 13:27:40;;;;;;;23.30;16.42;;;;;;;;;;5024707;28;20815;-85
2020/12/29 13:30:25;;;;;;;23.55;17.13;;;;;;;;;;5011377;28;20474;-85
2020/12/29 13:32:54;;;;;;;24.38;18.75;;;;;;;;;;5008125;28;20835;-85
2020/12/29 13:35:33;;;;;;;28.20;20.30;;;;;;;;;;5002288;28;20411;-85
2020/12/29 13:38:04;;;;;;;30.40;22.23;;;;;;;;;;4995788;28;20468;-84
2020/12/29 13:40:44;;;;;;;30.80;23.85;;;;;;;;;;5027888;28;20411;-84
2020/12/29 13:43:15;;;;;;;33.03;25.08;;;;;;;;;;5028160;28;20410;-84
2020/12/29 13:45:44;;;;;;;33.37;25.43;;;;;;;;;;5002541;28;20381;-83
2020/12/29 13:48:17;;;;;;;35.63;27.45;;;;;;;;;;4997966;28;20524;-86
2020/12/29 13:50:49;;;;;;;35.57;27.67;;;;;;;;;;5010796;28;20391;-85
2020/12/29 13:53:40;;;;;;;36.78;28.00;;;;;;;;;;5003076;28;20434;-85
2020/12/29 13:56:10;;;;;;;38.13;28.65;;;;;;;;;;5016310;28;20859;-84
2020/12/29 14:02:03;;;;;;;37.57;29.07;;;;;;;;;;5007770;28;21154;-86
2020/12/29 14:04:56;;;;;;;39.13;30.17;;;;;;;;;;5026034;28;20403;-86
2020/12/29 14:07:38;;;;;;;38.40;29.67;;;;;;;;;;5030399;28;20386;-85
2020/12/29 14:10:08;;;;;;;40.85;30.60;;;;;;;;;;5040839;28;20421;-87
2020/12/29 14:12:35;;;;;;;39.17;30.38;;;;;;;;;;5024231;28;20887;-85
2020/12/29 14:15:08;;;;;;;40.00;29.90;;;;;;;;;;5024350;28;20401;-85
2020/12/29 14:20:27;;;;;;;40.00;31.23;;;;;;;;;;5028740;28;20809;-83
2020/12/29 14:23:13;;;;;;;39.85;31.10;;;;;;;;;;5028519;28;20411;-84
2020/12/29 14:25:49;;;;;;;39.55;30.13;;;;;;;;;;5045661;28;20396;-85
2020/12/29 14:28:34;;;;;;;41.10;30.77;;;;;;;;;;5047273;28;20475;-88
2020/12/29 14:31:04;;;;;;;41.88;31.25;;;;;;;;;;5049908;28;20475;-83
2020/12/29 14:33:35;;;;;;;38.50;30.35;;;;;;;;;;5048815;28;20392;-89
2020/12/29 14:36:04;;;;;;;41.42;31.20;;;;;;;;;;5047524;28;20711;-85
2020/12/29 14:38:43;;;;;;;38.80;30.10;;;;;;;;;;5041714;28;20396;-85
2020/12/29 14:44:18;;;;;;;37.22;29.42;;;;;;;;;;4995803;28;20399;-84
2020/12/29 14:46:45;;;;;;;38.15;28.95;;;;;;;;;;5064872;28;20415;-85
2020/12/29 14:49:21;;;;;;;40.20;30.77;;;;;;;;;;5050127;28;20376;-87
2020/12/29 14:51:48;;;;;;;38.88;30.55;;;;;;;;;;5047012;28;20404;-84
2020/12/29 14:54:36;;;;;;;;;;;;;;;;;;;;;
2020/12/29 14:57:11;;;;;;;41.22;30.23;;;;;;;;;;5064184;28;20406;-87
2020/12/29 15:05:47;;;;;;;36.87;28.97;;;;;;;;;;5067047;28;20427;-85
2020/12/29 15:11:22;;;;;;;35.33;26.73;;;;;;;;;;4964091;28;20439;-84
2020/12/29 15:33:11;;;;;;;27.70;21.08;;;;;;;;;;4987374;28;20417;-87
2020/12/29 15:35:40;;;;;;;26.52;20.27;;;;;;;;;;4969505;28;20399;-89
2020/12/29 15:38:06;;;;;;;26.20;20.60;;;;;;;;;;4984962;28;20402;-80
2020/12/29 15:40:36;;;;;;;26.63;20.58;;;;;;;;;;5013882;28;20465;-92